Daily Weather Observations for Burdell (Townsville)
For Saturday 16th February 2019

This table is designed for ease of comparison to Bureau of Meteorology recorded weather data.

Station Details Name: BURDELL Lat: -19.24 Lon: 146.69 Height: 8.5 m
Date/Time
EST
Temp
°C
App
Temp
°C
Dew
Point
°C
Rel
Hum
%
Delta-T
°C
Wind Press
QNH
hPa
Press
MSL
hPa
Rain since
9am
mm
Dir  Spd
km/h
Gust
km/h
Spd
kts
Gust
kts
16/11:30pm 27.3 32.6 25.1 88 1.6 ENE 7 10 4 6 1009.4 1009.4 0.0
16/11:00pm 27.5 32.9 25.1 87 1.8 E 6 8 3 4 1009.3 1009.3 0.0
16/10:30pm 27.8 33.2 25.0 85 2.1 NE 6 10 3 6 1009.6 1009.6 0.0
16/10:00pm 27.8 33.4 25.0 85 2.1 E 6 10 3 6 1009.4 1009.4 0.0
16/09:30pm 27.8 33.5 25.0 85 2.1 E 6 8 3 4 1009.2 1009.2 0.0
16/09:00pm 27.8 33.5 25.2 86 1.9 E 5 8 3 4 1008.8 1008.8 0.0
16/08:30pm 27.5 33.2 24.7 85 2.1 ENE 4 8 2 4 1008.7 1008.7 0.0
16/08:00pm 27.6 33.4 24.8 85 2.1 ENE 4 8 2 4 1008.4 1008.4 0.0
16/07:30pm 27.9 32.9 24.7 83 2.4 E 9 16 5 9 1008.1 1008.1 0.0
16/07:00pm 28.6 33.4 24.4 79 3.1 ENE 6 13 3 7 1007.8 1007.8 0.0
16/06:30pm 29.3 35.1 25.1 78 3.1 N 10 13 5 7 1007.5 1007.5 0.0
16/06:00pm 29.8 35.5 24.8 75 3.7 NNW 14 18 8 10 1007.2 1007.2 0.0
16/05:30pm 30.6 37.4 25.2 73 4.0 NNW 17 21 9 11 1007.0 1007.0 0.0
16/05:00pm 30.8 37.7 25.3 73 4.1 NNW 19 23 10 13 1007.0 1007.0 0.0
16/04:30pm 31.3 38.4 25.2 70 4.5 NNW 19 23 10 13 1007.1 1007.1 0.0
16/04:00pm 31.9 40.1 25.7 70 4.6 NNW 20 26 11 14 1007.3 1007.3 0.0
16/03:30pm 32.3 40.5 25.7 69 4.9 NNW 21 29 11 16 1007.6 1007.6 0.0
16/03:00pm 32.5 41.0 26.0 70 4.9 NNW 22 29 12 16 1007.8 1007.8 0.0
16/02:30pm 33.7 42.0 25.7 65 6.0 NE 10 21 5 11 1008.2 1008.2 0.0
16/02:00pm 34.1 43.0 25.7 62 6.3 ENE 15 21 8 11 1008.5 1008.5 0.0
16/01:30pm 34.8 44.6 26.1 61 6.5 NE 13 18 7 10 1008.9 1008.9 0.0
16/01:00pm 34.8 44.9 26.2 61 6.4 NE 13 21 7 11 1009.3 1009.3 0.0
16/12:30pm 34.3 43.0 25.5 62 6.5 NE 14 21 8 11 1009.9 1009.9 0.0
16/12:00pm 33.8 41.8 25.1 61 6.4 NE 16 23 9 13 1010.4 1010.4 0.0
16/11:30am 32.4 39.4 24.7 66 5.7 NE 14 21 7 11 1011.0 1011.0 0.0
16/11:00am 33.3 41.6 25.5 64 5.8 E 14 18 8 10 1011.5 1011.5 0.0
16/10:30am 32.9 39.9 24.9 64 5.9 ESE 10 13 5 7 1011.7 1011.7 0.0
16/10:00am 32.0 38.3 24.3 64 5.6 SSE 20 26 11 14 1011.8 1011.8 0.0
16/09:30am 31.3 37.9 25.3 72 4.4 SSE 7 13 4 7 1011.9 1011.9 0.0
16/09:00am 30.4 36.6 24.8 73 4.1 SSW 8 13 4 7 1011.9 1011.9 0.0
16/08:30am 29.6 35.2 24.7 76 3.6 SSE 6 13 3 7 1011.7 1011.7 0.0
16/08:00am 28.7 33.9 24.7 79 2.9 S 6 8 3 4 1011.4 1011.4 0.0
16/07:30am 27.6 33.0 24.5 84 2.3 S 4 5 2 3 1011.2 1011.2 0.0
16/07:00am 26.2 31.5 24.1 89 1.5 S 3 5 2 3 1011.0 1011.0 0.0
16/06:30am 25.2 30.5 23.8 92 1.0 WSW 2 2 1 1 1010.8 1010.8 0.0
16/06:00am 24.9 30.3 23.4 92 1.1 SW 0 2 0 1 1010.5 1010.5 0.0
16/05:30am 25.3 30.4 23.5 90 1.3 SW 2 5 1 3 1010.4 1010.4 0.0
16/05:00am 26.1 31.5 23.6 86 1.8 SE 1 2 0 1 1010.1 1010.1 0.0
16/04:30am 26.3 31.8 23.6 85 2.0 SE 1 2 0 1 1010.1 1010.1 0.0
16/04:00am 26.3 31.9 23.6 85 2.0 CALM 0 0 0 0 1009.9 1009.9 0.0
16/03:30am 26.7 32.1 23.6 83 2.2 SE 1 2 0 1 1009.7 1009.7 0.0
16/03:00am 26.4 31.8 23.5 84 2.1 SE 1 2 0 1 1009.9 1009.9 0.0
16/02:30am 26.2 31.7 23.7 86 1.8 S 1 2 1 1 1009.9 1009.9 0.0
16/02:00am 26.3 32.0 24.1 88 1.6 S 0 1 0 1 1010.1 1010.1 0.0
16/01:30am 26.7 32.0 24.0 85 2.0 SSE 3 3 1 2 1010.4 1010.4 0.0
16/01:00am 26.3 31.6 23.8 86 1.8 SW 2 5 1 3 1010.6 1010.6 0.0
16/12:30am 26.4 31.9 23.9 86 1.8 W 2 5 1 3 1010.9 1010.9 0.0
16/12:00am 26.7 32.2 24.0 86 2.0 NNW 1 2 1 1 1010.9 1010.9 0.0
 


NOTE: The apparent temperature specified in the table above is calculated using both the Heat Index and Steadman method. This differs to the Bureau of Meteorology's calculation which uses the Steadman method alone.